Time;durP1;ratioP1;P1;durP2;ratioP2;P2;SDS_P1;SDS_P2;PMS_P1;PMS_P2;Temp;Humidity;BMP_temperature;BMP_pressure;BME280_temperature;BME280_humidity;BME280_pressure;Samples;Min_cycle;Max_cycle;Signal;HPM_P1;HPM_P2
2023/03/14 00:00:48;;;;;;;0.97;0.83;;;;;;;9.46;100.00;96525.31;5030163;28;20232;-76
2023/03/14 00:03:15;;;;;;;0.90;0.50;;;;;;;9.49;100.00;96511.88;5030442;28;20223;-76
2023/03/14 00:05:41;;;;;;;0.90;0.50;;;;;;;9.45;100.00;96535.06;5030978;28;20525;-76
2023/03/14 00:08:07;;;;;;;0.70;0.60;;;;;;;9.47;100.00;96505.91;5030489;28;20229;-76
2023/03/14 00:10:37;;;;;;;0.70;0.70;;;;;;;9.45;100.00;96529.78;5030305;28;20243;-76
2023/03/14 00:13:04;;;;;;;0.93;0.50;;;;;;;9.48;100.00;96547.13;5030369;28;20205;-76
2023/03/14 00:15:30;;;;;;;1.00;0.60;;;;;;;9.51;100.00;96523.13;5030438;28;20211;-76
2023/03/14 00:17:57;;;;;;;1.23;0.73;;;;;;;9.51;100.00;96513.41;5030208;28;20234;-76
2023/03/14 00:20:23;;;;;;;0.80;0.60;;;;;;;9.55;100.00;96513.97;5033410;28;20596;-76
2023/03/14 00:22:50;;;;;;;1.60;0.57;;;;;;;9.53;100.00;96514.09;5034283;28;20507;-76
2023/03/14 00:25:17;;;;;;;0.60;0.50;;;;;;;9.50;100.00;96518.81;5034450;28;20216;-76
2023/03/14 00:27:44;;;;;;;0.63;0.63;;;;;;;9.50;100.00;96505.63;5034316;28;20208;-76
2023/03/14 00:30:12;;;;;;;1.53;0.50;;;;;;;9.48;100.00;96511.03;5033747;28;20233;-76
2023/03/14 00:32:39;;;;;;;0.80;0.60;;;;;;;9.42;100.00;96502.88;5034089;28;20231;-76
2023/03/14 00:35:06;;;;;;;0.80;0.70;;;;;;;9.37;100.00;96519.06;5034251;28;20212;-76
2023/03/14 00:37:33;;;;;;;1.70;0.70;;;;;;;9.33;100.00;96522.13;5033950;28;20235;-76
2023/03/14 00:39:59;;;;;;;0.40;0.40;;;;;;;9.40;100.00;96524.09;5033532;28;20240;-76
2023/03/14 00:42:26;;;;;;;0.63;0.60;;;;;;;9.45;100.00;96524.50;5033892;28;20208;-76
2023/03/14 00:44:53;;;;;;;0.60;0.60;;;;;;;9.48;100.00;96528.69;5033881;28;20580;-76
2023/03/14 00:47:20;;;;;;;1.13;0.60;;;;;;;9.47;100.00;96527.00;5033619;28;20204;-76
2023/03/14 00:49:46;;;;;;;1.40;0.70;;;;;;;9.48;100.00;96526.03;5048082;22;20244;-79
2023/03/14 00:52:13;;;;;;;0.60;0.60;;;;;;;9.47;100.00;96522.56;5034100;28;20223;-79
2023/03/14 00:54:39;;;;;;;0.63;0.63;;;;;;;9.45;100.00;96523.66;5034000;28;20442;-78
2023/03/14 00:57:06;;;;;;;1.53;0.70;;;;;;;9.50;100.00;96538.13;5033998;28;20209;-79
2023/03/14 00:59:32;;;;;;;1.77;0.80;;;;;;;9.48;100.00;96537.41;5033489;28;20325;-79
2023/03/14 01:02:00;;;;;;;0.50;0.50;;;;;;;9.47;100.00;96533.09;5033893;28;20220;-79
2023/03/14 01:04:27;;;;;;;0.50;0.50;;;;;;;9.42;100.00;96539.78;5034305;28;20217;-79
2023/03/14 01:06:53;;;;;;;0.90;0.67;;;;;;;9.38;100.00;96533.94;5034066;28;20244;-79
2023/03/14 01:09:20;;;;;;;1.70;0.83;;;;;;;9.38;100.00;96551.56;5033666;28;20210;-79
2023/03/14 01:11:46;;;;;;;0.50;0.50;;;;;;;9.38;100.00;96552.41;5033978;28;20564;-79
2023/03/14 01:14:13;;;;;;;0.80;0.50;;;;;;;9.44;100.00;96554.50;5033992;28;20207;-79
2023/03/14 01:16:40;;;;;;;0.50;0.50;;;;;;;9.45;100.00;96556.16;5033960;28;20215;-78
2023/03/14 01:19:08;;;;;;;0.77;0.70;;;;;;;9.48;100.00;96539.22;5033561;28;20275;-78
2023/03/14 01:21:35;;;;;;;0.60;0.60;;;;;;;9.45;100.00;96526.31;5033643;28;20683;-78
2023/03/14 01:24:04;;;;;;;0.60;0.60;;;;;;;9.51;100.00;96525.75;5033498;28;20215;-79
2023/03/14 01:26:33;;;;;;;0.43;0.43;;;;;;;9.52;100.00;96525.63;5033474;28;20680;-79
2023/03/14 01:29:00;;;;;;;0.60;0.60;;;;;;;9.50;100.00;96524.09;5033199;28;20263;-79
2023/03/14 01:31:28;;;;;;;0.73;0.50;;;;;;;9.54;100.00;96507.03;5031813;28;20743;-79
2023/03/14 01:33:55;;;;;;;0.50;0.50;;;;;;;9.54;100.00;96481.47;5033285;28;20209;-79
2023/03/14 01:36:23;;;;;;;0.90;0.60;;;;;;;9.55;100.00;96479.69;5033165;28;20205;-79
2023/03/14 01:38:49;;;;;;;0.63;0.60;;;;;;;9.52;100.00;96478.16;5033021;28;20235;-79
2023/03/14 01:41:18;;;;;;;0.90;0.50;;;;;;;9.50;100.00;96472.19;5032655;28;20229;-79
2023/03/14 01:43:45;;;;;;;0.40;0.40;;;;;;;9.50;100.00;96463.44;5032925;28;20219;-79
2023/03/14 01:46:25;;;;;;;1.57;0.70;;;;;;;9.54;100.00;96446.38;5033167;28;20566;-79
2023/03/14 01:48:57;;;;;;;0.50;0.50;;;;;;;9.49;100.00;96441.50;5032885;28;20211;-79
2023/03/14 01:51:30;;;;;;;1.17;0.50;;;;;;;9.45;100.00;96428.75;5032378;28;20250;-79
2023/03/14 01:54:03;;;;;;;1.77;0.60;;;;;;;9.38;100.00;96425.00;5032729;28;20214;-77
2023/03/14 01:56:32;;;;;;;0.83;0.70;;;;;;;9.39;100.00;96434.59;5032848;28;20282;-79
2023/03/14 01:59:00;;;;;;;0.40;0.40;;;;;;;9.33;100.00;96437.78;5032437;28;20234;-79
2023/03/14 02:01:27;;;;;;;0.60;0.57;;;;;;;9.39;100.00;96445.13;5032495;28;20235;-79
2023/03/14 02:03:57;;;;;;;0.67;0.50;;;;;;;9.39;100.00;96426.66;5032623;28;20216;-79
2023/03/14 02:06:29;;;;;;;0.50;0.50;;;;;;;9.39;100.00;96424.88;5032455;28;20219;-79
2023/03/14 02:08:56;;;;;;;0.90;0.70;;;;;;;9.43;100.00;96430.69;5032665;28;20211;-79
2023/03/14 02:11:27;;;;;;;0.53;0.50;;;;;;;9.40;100.00;96430.97;5032362;28;20326;-78
2023/03/14 02:13:54;;;;;;;1.10;0.67;;;;;;;9.38;100.00;96438.19;5032672;28;20242;-78
2023/03/14 02:16:20;;;;;;;0.53;0.50;;;;;;;9.35;100.00;96425.28;5032380;28;20216;-78
2023/03/14 02:18:47;;;;;;;0.97;0.53;;;;;;;9.31;100.00;96426.53;5032151;28;20233;-78
2023/03/14 02:21:21;;;;;;;0.43;0.40;;;;;;;9.38;100.00;96422.38;5031853;28;20225;-78
2023/03/14 02:23:58;;;;;;;0.63;0.57;;;;;;;9.29;100.00;96416.13;5032388;28;20211;-78
2023/03/14 02:26:28;;;;;;;0.50;0.50;;;;;;;9.27;100.00;96412.81;5032535;28;20215;-78
2023/03/14 02:28:56;;;;;;;0.73;0.60;;;;;;;9.28;100.00;96418.91;5032176;28;20203;-77
2023/03/14 02:31:23;;;;;;;0.40;0.40;;;;;;;9.33;100.00;96393.81;5031715;28;20235;-77
2023/03/14 02:33:51;;;;;;;0.57;0.50;;;;;;;9.38;100.00;96390.75;5032380;28;20220;-77
2023/03/14 02:36:19;;;;;;;1.23;0.50;;;;;;;9.35;100.00;96398.91;5032235;28;20563;-77
2023/03/14 02:38:51;;;;;;;0.50;0.50;;;;;;;9.34;100.00;96410.44;5031939;28;20232;-77
2023/03/14 02:41:18;;;;;;;0.50;0.50;;;;;;;9.30;100.00;96399.34;5031311;28;20720;-77
2023/03/14 02:43:45;;;;;;;0.40;0.40;;;;;;;9.26;100.00;96408.53;5032322;28;20306;-77
2023/03/14 02:46:14;;;;;;;0.40;0.40;;;;;;;9.23;100.00;96414.06;5031748;28;20683;-77
2023/03/14 02:48:48;;;;;;;0.60;0.60;;;;;;;9.21;100.00;96423.06;5031748;28;20205;-77
2023/03/14 02:51:15;;;;;;;0.70;0.50;;;;;;;9.18;100.00;96405.72;5031525;28;20236;-79
2023/03/14 02:53:42;;;;;;;1.23;0.50;;;;;;;9.19;100.00;96403.94;5031927;28;20209;-78
2023/03/14 02:56:10;;;;;;;1.63;0.67;;;;;;;9.19;100.00;96411.84;5031749;28;20259;-78
2023/03/14 02:58:37;;;;;;;0.50;0.50;;;;;;;9.15;100.00;96384.09;5031395;28;20235;-79
2023/03/14 03:01:04;;;;;;;0.57;0.57;;;;;;;9.14;100.00;96382.44;5031383;28;20225;-79
2023/03/14 03:03:31;;;;;;;1.03;0.60;;;;;;;9.18;100.00;96374.09;5031605;28;20216;-79
2023/03/14 03:05:58;;;;;;;1.10;0.53;;;;;;;9.23;100.00;96365.81;5031844;28;20616;-79
2023/03/14 03:08:26;;;;;;;1.20;0.60;;;;;;;9.25;100.00;96355.94;5031612;28;20205;-78
2023/03/14 03:10:53;;;;;;;2.57;0.63;;;;;;;9.28;100.00;96353.00;5031054;28;20282;-79
2023/03/14 03:13:20;;;;;;;0.70;0.70;;;;;;;9.26;100.00;96360.22;5031623;28;20213;-77
2023/03/14 03:15:47;;;;;;;2.33;0.70;;;;;;;9.26;100.00;96354.97;5031903;28;20212;-78
2023/03/14 03:18:14;;;;;;;1.10;0.60;;;;;;;9.17;100.00;96345.28;5031452;28;20239;-78
2023/03/14 03:20:41;;;;;;;1.23;0.50;;;;;;;9.16;100.00;96338.31;5031044;28;20237;-77
2023/03/14 03:23:08;;;;;;;2.80;0.80;;;;;;;9.21;100.00;96336.09;5031307;28;20209;-77
2023/03/14 03:25:34;;;;;;;0.60;0.60;;;;;;;9.19;100.00;96332.78;5031247;28;20218;-78
2023/03/14 03:28:07;;;;;;;1.77;0.80;;;;;;;9.16;100.00;96335.69;5031550;28;20208;-78
2023/03/14 03:30:33;;;;;;;1.20;0.53;;;;;;;9.27;100.00;96336.38;5031242;28;20234;-77
2023/03/14 03:33:00;;;;;;;0.87;0.50;;;;;;;9.19;100.00;96332.78;5031240;28;20671;-77
2023/03/14 03:35:26;;;;;;;0.93;0.60;;;;;;;9.19;100.00;96330.16;5031595;28;20440;-77
2023/03/14 03:37:54;;;;;;;1.23;0.83;;;;;;;9.13;100.00;96326.25;5031177;28;20213;-77
2023/03/14 03:40:21;;;;;;;2.60;0.70;;;;;;;9.10;100.00;96317.78;5030979;28;20408;-78
2023/03/14 03:42:47;;;;;;;1.07;0.60;;;;;;;9.07;100.00;96307.56;5031445;28;20217;-78
2023/03/14 03:45:14;;;;;;;1.03;0.70;;;;;;;9.11;100.00;96303.69;5031669;28;20211;-78
2023/03/14 03:47:40;;;;;;;1.37;0.70;;;;;;;9.10;100.00;96296.72;5031323;28;20217;-78
2023/03/14 03:50:07;;;;;;;1.40;0.80;;;;;;;9.08;100.00;96298.69;5031036;28;20247;-78
2023/03/14 03:52:34;;;;;;;1.47;0.70;;;;;;;8.98;100.00;96311.00;5031084;28;20209;-79
2023/03/14 03:55:02;;;;;;;1.87;0.87;;;;;;;8.93;100.00;96311.44;5034346;28;20248;-77
2023/03/14 03:57:40;;;;;;;1.40;0.60;;;;;;;8.89;100.00;96317.13;5035219;28;20223;-77
2023/03/14 04:00:08;;;;;;;0.60;0.50;;;;;;;8.90;100.00;96316.16;5034758;28;20237;-77
2023/03/14 04:02:35;;;;;;;1.30;0.67;;;;;;;8.94;100.00;96322.81;5034911;28;20251;-77
2023/03/14 04:05:01;;;;;;;4.13;0.83;;;;;;;8.84;100.00;96309.66;5034886;28;20238;-78
2023/03/14 04:07:28;;;;;;;1.27;0.60;;;;;;;8.86;100.00;96304.22;5034986;28;20209;-78
2023/03/14 04:09:54;;;;;;;2.73;0.70;;;;;;;8.88;100.00;96318.13;5034691;28;20234;-78
2023/03/14 04:12:22;;;;;;;2.20;0.77;;;;;;;8.80;100.00;96304.78;5035079;28;20214;-78
2023/03/14 04:14:49;;;;;;;1.70;0.70;;;;;;;8.85;100.00;96297.31;5034993;28;20216;-78
2023/03/14 04:17:15;;;;;;;14.30;1.67;;;;;;;8.84;100.00;96301.75;5034976;28;20231;-78
2023/03/14 04:19:42;;;;;;;2.80;0.83;;;;;;;8.79;100.00;96303.13;5034379;28;20234;-78
2023/03/14 04:22:08;;;;;;;3.40;1.27;;;;;;;8.79;100.00;96301.34;5034778;28;20655;-78
2023/03/14 04:24:35;;;;;;;3.37;1.13;;;;;;;8.73;100.00;96299.25;5034696;28;20212;-78
2023/03/14 04:27:01;;;;;;;1.73;0.90;;;;;;;8.75;100.00;96307.03;5034827;28;20579;-79
2023/03/14 04:29:29;;;;;;;3.13;1.00;;;;;;;8.73;100.00;96303.69;5034322;28;20225;-78
2023/03/14 04:31:55;;;;;;;2.47;0.80;;;;;;;8.72;100.00;96305.50;5034934;28;20234;-78
2023/03/14 04:34:22;;;;;;;1.83;0.80;;;;;;;8.80;100.00;96304.78;5034540;28;20225;-78
2023/03/14 04:36:48;;;;;;;2.17;0.80;;;;;;;8.71;100.00;96305.63;5034723;28;20232;-78
2023/03/14 04:39:15;;;;;;;1.33;0.70;;;;;;;8.76;100.00;96301.59;5034152;28;20232;-78
2023/03/14 04:41:41;;;;;;;2.57;0.80;;;;;;;8.71;100.00;96292.47;5034659;28;20212;-78
2023/03/14 04:44:08;;;;;;;4.63;1.00;;;;;;;8.67;100.00;96289.28;5034701;28;20222;-78
2023/03/14 04:46:35;;;;;;;1.30;0.70;;;;;;;8.62;100.00;96290.69;5034441;28;20216;-78
2023/03/14 04:49:02;;;;;;;1.97;0.70;;;;;;;8.59;100.00;96280.41;5034199;28;20559;-78
2023/03/14 04:51:28;;;;;;;2.53;0.80;;;;;;;8.57;100.00;96280.53;5033756;28;20248;-78
2023/03/14 04:53:55;;;;;;;2.60;0.93;;;;;;;8.59;100.00;96270.72;5034301;28;20315;-78
2023/03/14 04:56:24;;;;;;;2.97;1.53;;;;;;;8.61;100.00;96275.84;5034338;28;20215;-78
2023/03/14 04:58:50;;;;;;;2.77;0.87;;;;;;;8.59;100.00;96269.88;5034263;28;20256;-78
2023/03/14 05:01:17;;;;;;;2.83;0.67;;;;;;;8.53;100.00;96270.44;5033619;28;20242;-77
2023/03/14 05:03:45;;;;;;;1.73;0.70;;;;;;;8.49;100.00;96269.88;5033821;28;20211;-78
2023/03/14 05:06:12;;;;;;;2.07;1.00;;;;;;;8.52;100.00;96266.97;5033882;28;20208;-78
2023/03/14 05:08:38;;;;;;;3.53;1.13;;;;;;;8.53;100.00;96257.28;5033991;28;20211;-78
2023/03/14 05:11:05;;;;;;;3.00;0.83;;;;;;;8.54;100.00;96261.56;5033917;28;20608;-78
2023/03/14 05:13:31;;;;;;;1.70;0.97;;;;;;;8.49;100.00;96258.50;5033814;28;20577;-78
2023/03/14 05:16:05;;;;;;;2.70;0.80;;;;;;;8.44;100.00;96250.22;5033671;28;20706;-78
2023/03/14 05:18:31;;;;;;;1.63;0.70;;;;;;;8.40;100.00;96248.81;5033720;28;20219;-78
2023/03/14 05:20:59;;;;;;;1.63;0.70;;;;;;;8.37;100.00;96254.34;5033325;28;20239;-78
2023/03/14 05:23:26;;;;;;;2.40;1.00;;;;;;;8.30;100.00;96247.97;5033576;28;20207;-78
2023/03/14 05:25:53;;;;;;;2.73;1.00;;;;;;;8.21;100.00;96249.63;5033549;28;20298;-78
2023/03/14 05:28:19;;;;;;;1.77;0.80;;;;;;;8.20;100.00;96257.69;5033333;28;20215;-78
2023/03/14 05:30:45;;;;;;;3.53;0.90;;;;;;;8.26;100.00;96251.88;5032849;28;20748;-78
2023/03/14 05:33:12;;;;;;;0.83;0.50;;;;;;;8.24;100.00;96243.28;5033319;28;20209;-77
2023/03/14 05:35:38;;;;;;;3.27;0.80;;;;;;;8.17;100.00;96242.13;5033209;28;20207;-78
2023/03/14 05:38:06;;;;;;;1.77;0.90;;;;;;;8.21;100.00;96228.59;5033160;28;20215;-78
2023/03/14 05:40:36;;;;;;;4.00;0.80;;;;;;;8.18;100.00;96228.00;5032848;28;20597;-78
2023/03/14 05:43:02;;;;;;;3.33;0.77;;;;;;;8.22;100.00;96221.53;5033178;28;20209;-78
2023/03/14 05:45:29;;;;;;;3.30;0.90;;;;;;;8.21;100.00;96211.97;5033334;28;20215;-78
2023/03/14 05:47:55;;;;;;;2.80;0.70;;;;;;;8.20;100.00;96226.13;5033165;28;20216;-78
2023/03/14 05:50:22;;;;;;;2.10;0.70;;;;;;;8.22;100.00;96224.16;5032757;28;20250;-78
2023/03/14 05:52:48;;;;;;;1.13;0.60;;;;;;;8.18;100.00;96238.53;5033135;28;20663;-78
2023/03/14 05:55:16;;;;;;;2.50;1.03;;;;;;;8.20;100.00;96236.63;5033132;28;20594;-79
2023/03/14 05:57:43;;;;;;;2.70;1.10;;;;;;;8.43;100.00;96230.09;5033044;28;20303;-78
2023/03/14 06:00:10;;;;;;;2.73;0.90;;;;;;;8.54;100.00;96235.25;5032652;28;20586;-78
2023/03/14 06:02:37;;;;;;;1.87;0.90;;;;;;;8.60;100.00;96226.78;5033166;28;20210;-78
2023/03/14 06:05:04;;;;;;;1.37;0.80;;;;;;;8.66;100.00;96224.44;5032858;28;20215;-78
2023/03/14 06:07:30;;;;;;;3.20;1.10;;;;;;;8.72;100.00;96212.50;5032708;28;20215;-78
2023/03/14 06:09:58;;;;;;;2.27;0.90;;;;;;;8.70;100.00;96217.06;5032131;28;20255;-78
2023/03/14 06:12:26;;;;;;;1.57;0.73;;;;;;;8.64;100.00;96225.53;5032423;28;20214;-78
2023/03/14 06:14:52;;;;;;;2.23;0.80;;;;;;;8.60;100.00;96218.88;5032574;28;20261;-78
2023/03/14 06:17:19;;;;;;;2.20;0.70;;;;;;;8.59;100.00;96211.97;5031643;28;20211;-78
2023/03/14 06:19:45;;;;;;;1.60;0.60;;;;;;;8.59;100.00;96217.22;5031997;28;20583;-78
2023/03/14 06:22:12;;;;;;;2.87;0.70;;;;;;;8.55;100.00;96210.56;5032041;28;20219;-78
2023/03/14 06:24:38;;;;;;;2.50;0.60;;;;;;;8.55;100.00;96200.03;5032106;28;20216;-78
2023/03/14 06:27:05;;;;;;;2.83;0.80;;;;;;;8.58;100.00;96183.97;5032140;28;20219;-78
2023/03/14 06:29:33;;;;;;;4.73;0.70;;;;;;;8.60;100.00;96182.03;5031689;28;20709;-78
2023/03/14 06:31:59;;;;;;;3.33;0.70;;;;;;;8.67;100.00;96180.47;5032068;28;20216;-78
2023/03/14 06:34:26;;;;;;;4.20;0.93;;;;;;;8.69;100.00;96189.09;5032033;28;20214;-78
2023/03/14 06:36:52;;;;;;;4.67;0.83;;;;;;;8.67;100.00;96191.00;5032199;28;20215;-78
2023/03/14 06:39:19;;;;;;;2.43;0.80;;;;;;;8.60;100.00;96182.03;5031491;28;20242;-79
2023/03/14 06:41:46;;;;;;;3.13;0.90;;;;;;;8.65;100.00;96188.53;5032227;28;20215;-78
2023/03/14 06:44:12;;;;;;;0.87;0.80;;;;;;;8.66;100.00;96182.31;5031878;28;20211;-78
2023/03/14 06:46:40;;;;;;;1.70;0.63;;;;;;;8.73;100.00;96174.66;5031958;28;20246;-78
2023/03/14 06:49:07;;;;;;;2.50;0.60;;;;;;;8.82;100.00;96181.72;5031826;28;20210;-78
2023/03/14 06:51:33;;;;;;;1.43;0.70;;;;;;;8.86;100.00;96176.00;5046674;22;20244;-83
2023/03/14 06:54:00;;;;;;;3.10;0.90;;;;;;;8.87;100.00;96180.28;5031750;28;20211;-76
2023/03/14 06:56:26;;;;;;;1.50;1.00;;;;;;;8.83;100.00;96188.63;5031336;28;20205;-77
2023/03/14 06:58:53;;;;;;;1.50;0.67;;;;;;;8.85;100.00;96197.22;5032184;28;20237;-77
2023/03/14 07:01:24;;;;;;;0.83;0.50;;;;;;;8.85;100.00;96200.69;5031649;28;20235;-77
2023/03/14 07:03:52;;;;;;;3.17;0.87;;;;;;;8.94;100.00;96191.09;5032157;28;20215;-77
2023/03/14 07:06:19;;;;;;;3.47;0.67;;;;;;;8.94;100.00;96201.66;5031617;28;20224;-77
2023/03/14 07:08:45;;;;;;;1.03;0.67;;;;;;;8.98;100.00;96187.19;5031842;28;20216;-75
2023/03/14 07:11:12;;;;;;;1.23;0.60;;;;;;;9.15;100.00;96189.09;5031355;28;20231;-77
2023/03/14 07:13:38;;;;;;;2.47;0.80;;;;;;;9.33;100.00;96195.25;5031870;28;20214;-76
2023/03/14 07:16:06;;;;;;;0.90;0.60;;;;;;;9.47;100.00;96207.94;5031713;28;20215;-75
2023/03/14 07:18:33;;;;;;;1.37;0.70;;;;;;;9.57;100.00;96203.47;5031865;28;20577;-76
2023/03/14 07:21:01;;;;;;;0.70;0.50;;;;;;;9.71;100.00;96213.53;5031267;28;20235;-78
2023/03/14 07:23:27;;;;;;;2.10;0.60;;;;;;;9.79;100.00;96221.56;5031920;28;20557;-76
2023/03/14 07:25:54;;;;;;;1.57;0.60;;;;;;;9.94;100.00;96214.78;5031940;28;20235;-76
2023/03/14 07:28:22;;;;;;;1.57;0.60;;;;;;;10.04;100.00;96211.13;5031098;28;20254;-76
2023/03/14 07:30:49;;;;;;;2.60;1.00;;;;;;;10.08;100.00;96203.75;5032257;28;20236;-77
2023/03/14 07:33:16;;;;;;;1.13;0.50;;;;;;;10.06;99.24;96205.72;5032483;28;20219;-76
2023/03/14 07:35:42;;;;;;;0.63;0.47;;;;;;;10.11;97.88;96200.81;5032464;28;20216;-76
2023/03/14 07:38:10;;;;;;;1.20;0.70;;;;;;;10.18;98.03;96207.16;5033179;28;20221;-76
2023/03/14 07:40:36;;;;;;;1.93;0.50;;;;;;;10.29;98.88;96214.84;5033597;28;20697;-76
2023/03/14 07:43:03;;;;;;;1.43;0.60;;;;;;;10.51;98.71;96209.13;5032284;28;20215;-77
2023/03/14 07:45:29;;;;;;;2.00;0.70;;;;;;;10.62;96.81;96203.59;5031487;28;20208;-78
2023/03/14 07:47:57;;;;;;;1.73;0.80;;;;;;;10.79;93.90;96197.44;5030323;28;20594;-75
2023/03/14 07:50:23;;;;;;;0.80;0.50;;;;;;;10.91;93.95;96197.06;5031178;28;20368;-77
2023/03/14 07:52:50;;;;;;;1.33;0.43;;;;;;;11.01;93.51;96196.97;5030922;28;20207;-77
2023/03/14 07:55:18;;;;;;;0.60;0.40;;;;;;;11.09;91.05;96189.06;5030997;28;20214;-78
2023/03/14 07:57:44;;;;;;;3.00;0.73;;;;;;;11.09;91.71;96189.06;5031372;28;20208;-77
2023/03/14 08:00:13;;;;;;;0.40;0.40;;;;;;;11.11;92.24;96195.88;5030867;28;20241;-78
2023/03/14 08:02:40;;;;;;;2.17;0.60;;;;;;;11.11;89.70;96181.81;5031413;28;20247;-77
2023/03/14 08:05:07;;;;;;;0.77;0.40;;;;;;;11.18;90.88;96188.97;5031374;28;20591;-77
2023/03/14 08:07:34;;;;;;;1.63;0.50;;;;;;;11.29;89.91;96185.22;5031241;28;20547;-77
2023/03/14 08:10:01;;;;;;;1.00;0.40;;;;;;;11.41;87.05;96176.84;5030909;28;20241;-77
2023/03/14 08:12:28;;;;;;;3.30;0.70;;;;;;;11.41;87.36;96178.66;5031158;28;20636;-77
2023/03/14 08:14:55;;;;;;;1.73;0.70;;;;;;;11.53;88.34;96186.16;5031065;28;20246;-77
2023/03/14 08:17:21;;;;;;;2.53;0.50;;;;;;;11.59;86.64;96187.38;5030460;28;20205;-76
2023/03/14 08:19:48;;;;;;;1.33;0.40;;;;;;;11.69;87.99;96188.09;5034324;28;20240;-78
2023/03/14 08:22:14;;;;;;;1.20;0.53;;;;;;;11.88;87.14;96179.88;5041424;28;20213;-77
2023/03/14 08:24:41;;;;;;;2.50;0.40;;;;;;;11.99;82.18;96159.22;5041420;28;20257;-75
2023/03/14 08:27:08;;;;;;;1.13;0.70;;;;;;;12.21;84.85;96176.31;5041763;28;20209;-77
2023/03/14 08:29:36;;;;;;;1.20;0.40;;;;;;;12.39;83.28;96166.41;5041348;28;20213;-77
2023/03/14 08:32:02;;;;;;;1.07;0.30;;;;;;;12.37;80.17;96131.31;5039129;28;20217;-77
2023/03/14 08:34:29;;;;;;;0.50;0.40;;;;;;;12.26;81.71;96151.00;5054710;28;20200;-77
2023/03/14 08:36:56;;;;;;;0.73;0.30;;;;;;;12.14;82.24;96154.13;5054318;28;20214;-76
2023/03/14 08:39:23;;;;;;;1.33;0.50;;;;;;;11.98;81.40;96156.75;5050141;28;20279;-77
2023/03/14 08:41:50;;;;;;;1.17;0.40;;;;;;;11.88;78.37;96134.88;5054308;28;20232;-77
2023/03/14 08:44:16;;;;;;;0.40;0.40;;;;;;;11.91;79.17;96150.44;5053490;28;20215;-77
2023/03/14 08:46:44;;;;;;;0.87;0.30;;;;;;;11.98;78.56;96146.97;5050732;28;20212;-78
2023/03/14 08:49:11;;;;;;;2.17;0.50;;;;;;;11.94;76.71;96131.59;5040854;28;20220;-79
2023/03/14 08:51:37;;;;;;;2.33;0.40;;;;;;;11.95;77.73;96146.47;5027394;28;20256;-78
2023/03/14 08:54:04;;;;;;;1.10;0.30;;;;;;;12.03;77.80;96149.97;5027305;28;20223;-79
2023/03/14 08:56:30;;;;;;;0.70;0.70;;;;;;;12.09;76.34;96153.78;5027228;28;20216;-79
2023/03/14 08:58:58;;;;;;;0.83;0.40;;;;;;;12.34;75.10;96152.84;5031516;28;20241;-80
2023/03/14 09:01:26;;;;;;;0.53;0.30;;;;;;;12.70;75.65;96164.75;5027840;28;20234;-79
2023/03/14 09:03:53;;;;;;;1.23;0.30;;;;;;;13.03;73.78;96161.91;5026777;28;20213;-78
2023/03/14 09:06:20;;;;;;;3.63;0.50;;;;;;;12.97;69.90;96156.47;5029245;28;20332;-79
2023/03/14 09:08:46;;;;;;;1.90;0.40;;;;;;;12.88;71.97;96162.75;5027433;28;20319;-79
2023/03/14 09:11:14;;;;;;;1.23;0.50;;;;;;;12.96;74.15;96176.03;5028090;28;20233;-77
2023/03/14 09:13:41;;;;;;;3.47;0.50;;;;;;;13.04;73.29;96171.56;5028849;28;20210;-76
2023/03/14 09:16:09;;;;;;;0.30;0.30;;;;;;;12.93;72.83;96166.56;5022160;28;20209;-78
2023/03/14 09:18:36;;;;;;;0.93;0.40;;;;;;;13.07;74.25;96199.56;5023038;28;20223;-78
2023/03/14 09:21:04;;;;;;;0.97;0.50;;;;;;;12.79;74.33;96206.16;5032119;28;20234;-81
2023/03/14 09:23:31;;;;;;;0.73;0.30;;;;;;;12.70;76.58;96220.41;5035505;28;20222;-81
2023/03/14 09:25:58;;;;;;;0.23;0.20;;;;;;;12.74;78.44;96232.34;5035962;28;20229;-81
2023/03/14 09:28:25;;;;;;;0.60;0.37;;;;;;;12.84;78.32;96233.00;5031968;28;20205;-81
2023/03/14 09:30:52;;;;;;;1.00;0.40;;;;;;;12.87;76.94;96227.38;5036038;28;20229;-81
2023/03/14 09:33:19;;;;;;;0.37;0.20;;;;;;;12.99;77.05;96224.25;5038226;28;20206;-81
2023/03/14 09:35:45;;;;;;;0.33;0.33;;;;;;;12.93;76.00;96226.69;5038388;28;20209;-81
2023/03/14 09:38:13;;;;;;;1.07;0.30;;;;;;;12.96;76.85;96223.75;5038255;28;20227;-82
2023/03/14 09:40:40;;;;;;;1.47;0.37;;;;;;;12.98;75.85;96232.38;5037431;28;20281;-81
2023/03/14 09:43:07;;;;;;;0.33;0.30;;;;;;;12.95;76.84;96240.66;5037412;28;20203;-91
2023/03/14 09:45:36;;;;;;;1.53;0.40;;;;;;;12.94;76.51;96241.59;5023707;28;20216;-79
2023/03/14 09:48:05;;;;;;;0.40;0.40;;;;;;;13.12;78.01;96260.88;5013830;28;20221;-83
2023/03/14 09:50:37;;;;;;;2.47;0.50;;;;;;;13.14;76.19;96243.78;5013112;28;20744;-80
2023/03/14 09:53:07;;;;;;;0.70;0.30;;;;;;;12.94;75.23;96237.16;5012737;28;20216;-77
2023/03/14 09:55:36;;;;;;;0.20;0.20;;;;;;;12.81;75.59;96246.59;5013642;28;20209;-82
2023/03/14 09:58:10;;;;;;;1.33;0.30;;;;;;;12.71;77.85;96261.84;5013747;28;20213;-78
2023/03/14 10:00:37;;;;;;;1.00;0.30;;;;;;;12.88;75.84;96258.19;5012687;28;20688;-82
2023/03/14 10:03:22;;;;;;;1.23;0.30;;;;;;;12.83;73.82;96240.13;5013341;28;20221;-77
2023/03/14 10:05:48;;;;;;;0.50;0.30;;;;;;;12.99;77.14;96249.94;5012976;28;20244;-76
2023/03/14 10:08:15;;;;;;;0.30;0.30;;;;;;;13.11;74.19;96227.38;5013439;28;20309;-76
2023/03/14 10:10:43;;;;;;;0.30;0.30;;;;;;;13.01;75.30;96232.06;5011710;28;20609;-76
2023/03/14 10:13:16;;;;;;;0.67;0.30;;;;;;;12.94;75.36;96225.69;5013047;28;20214;-77
2023/03/14 10:15:47;;;;;;;0.53;0.13;;;;;;;12.84;73.61;96198.56;5012856;28;20209;-77
2023/03/14 10:18:15;;;;;;;0.97;0.30;;;;;;;12.90;76.16;96208.50;5011879;28;20203;-77
2023/03/14 10:20:43;;;;;;;1.83;0.30;;;;;;;12.93;74.83;96202.84;5012466;28;20237;-75
2023/03/14 10:23:24;;;;;;;0.50;0.47;;;;;;;13.01;76.75;96210.84;5012999;28;20206;-77
2023/03/14 10:26:06;;;;;;;0.30;0.30;;;;;;;13.15;76.55;96218.09;5013045;28;20694;-77
2023/03/14 10:28:34;;;;;;;0.47;0.30;;;;;;;13.24;73.56;96195.88;5012700;28;20217;-77
2023/03/14 10:31:01;;;;;;;0.57;0.30;;;;;;;13.48;75.73;96211.72;5012317;28;20470;-76
2023/03/14 10:33:30;;;;;;;0.97;0.30;;;;;;;13.59;71.43;96179.53;5012806;28;20219;-76
2023/03/14 10:35:59;;;;;;;0.27;0.20;;;;;;;13.53;71.59;96186.34;5012646;28;20215;-75
2023/03/14 10:38:28;;;;;;;0.20;0.20;;;;;;;13.62;70.85;96179.19;5012470;28;20588;-76
2023/03/14 10:40:57;;;;;;;0.37;0.27;;;;;;;13.63;69.63;96191.47;5011157;28;20617;-74
2023/03/14 10:43:27;;;;;;;0.30;0.30;;;;;;;13.60;68.78;96176.69;5010952;28;20304;-75
2023/03/14 10:45:57;;;;;;;0.30;0.30;;;;;;;13.47;68.65;96197.66;5011848;28;20210;-75
2023/03/14 10:48:31;;;;;;;1.57;0.47;;;;;;;13.47;73.27;96218.03;5011665;28;20217;-76
2023/03/14 10:51:03;;;;;;;0.30;0.23;;;;;;;13.43;70.13;96206.94;5013220;28;20230;-75
2023/03/14 10:53:35;;;;;;;1.50;0.20;;;;;;;13.42;68.87;96199.97;5022634;28;20251;-76
2023/03/14 10:56:04;;;;;;;1.00;0.20;;;;;;;13.34;69.96;96201.81;5031128;28;20564;-75
2023/03/14 10:58:38;;;;;;;0.30;0.30;;;;;;;13.08;69.59;96207.34;5031232;28;20710;-76
2023/03/14 11:01:17;;;;;;;0.20;0.20;;;;;;;13.07;69.88;96215.47;5030603;28;20322;-77
2023/03/14 11:03:53;;;;;;;0.20;0.20;;;;;;;12.97;70.62;96225.41;5030788;28;20300;-76
2023/03/14 11:06:27;;;;;;;0.50;0.17;;;;;;;12.89;71.57;96228.06;5031980;28;20217;-76
2023/03/14 11:09:05;;;;;;;0.20;0.20;;;;;;;12.95;75.12;96260.03;5032061;28;20581;-78
2023/03/14 11:11:32;;;;;;;0.17;0.17;;;;;;;12.94;73.93;96253.06;5031637;28;20224;-75
2023/03/14 11:14:14;;;;;;;0.37;0.30;;;;;;;12.81;78.41;96278.38;5031540;28;20220;-78
2023/03/14 11:16:52;;;;;;;0.97;0.30;;;;;;;12.67;81.37;96287.00;5031889;28;20198;-77
2023/03/14 11:19:45;;;;;;;0.20;0.20;;;;;;;12.46;82.20;96291.94;5031445;28;20213;-78
2023/03/14 11:22:22;;;;;;;0.70;0.37;;;;;;;12.53;83.02;96300.88;5031640;28;20235;-76
2023/03/14 11:25:15;;;;;;;0.33;0.20;;;;;;;12.36;85.83;96305.28;5031346;28;20212;-77
2023/03/14 11:27:44;;;;;;;0.73;0.30;;;;;;;12.29;84.90;96298.16;5029246;28;20219;-75
2023/03/14 11:30:20;;;;;;;0.50;0.30;;;;;;;12.15;89.24;96323.44;5031161;28;20251;-75
2023/03/14 11:32:49;;;;;;;1.37;0.40;;;;;;;11.96;90.71;96317.53;5031641;28;20240;-78
2023/03/14 11:35:25;;;;;;;0.40;0.40;;;;;;;11.88;90.85;96317.53;5030635;28;20267;-78
2023/03/14 11:37:55;;;;;;;0.30;0.30;;;;;;;11.89;95.56;96330.59;5030719;28;20222;-78